createdAt,value
2017-10-02T00:01:20.244Z,0
2017-10-02T00:02:42.344Z,0
2017-10-02T00:04:04.334Z,0
2017-10-02T00:05:26.788Z,0
2017-10-02T00:06:49.300Z,0
2017-10-02T00:08:11.445Z,0
2017-10-02T00:09:33.613Z,0
2017-10-02T00:10:55.124Z,0
2017-10-02T00:12:16.975Z,0
2017-10-02T00:13:39.165Z,0
2017-10-02T00:15:01.080Z,0
2017-10-02T00:16:23.203Z,0
2017-10-02T00:17:45.021Z,0
2017-10-02T00:19:07.156Z,0
2017-10-02T00:20:29.094Z,0
2017-10-02T00:21:51.303Z,0
2017-10-02T00:23:13.475Z,0
2017-10-02T00:24:34.979Z,0
2017-10-02T00:25:56.577Z,0
2017-10-02T00:27:18.713Z,0
2017-10-02T00:28:40.828Z,0
2017-10-02T00:30:02.958Z,0
2017-10-02T00:31:24.866Z,0
2017-10-02T00:32:47.049Z,0
2017-10-02T00:34:09.834Z,0
2017-10-02T00:35:31.956Z,0
2017-10-02T00:36:54.083Z,0
2017-10-02T00:38:16.322Z,0
2017-10-02T00:39:37.892Z,0
2017-10-02T00:41:00.062Z,0
2017-10-02T00:42:21.944Z,0
2017-10-02T00:43:43.773Z,0
2017-10-02T00:45:06.583Z,0
2017-10-02T00:46:28.424Z,0
2017-10-02T00:47:50.605Z,0
2017-10-02T00:49:12.094Z,0
2017-10-02T00:50:34.544Z,0
2017-10-02T00:51:56.686Z,0
2017-10-02T00:53:17.844Z,0
2017-10-02T00:54:39.773Z,0
2017-10-02T00:56:01.262Z,0
2017-10-02T00:57:23.419Z,0
2017-10-02T00:58:45.235Z,0
2017-10-02T01:00:06.853Z,0
2017-10-02T01:01:29.034Z,0
2017-10-02T01:02:51.506Z,0
2017-10-02T01:04:13.631Z,0
2017-10-02T01:05:35.783Z,0
2017-10-02T01:06:56.922Z,0
2017-10-02T01:08:19.071Z,0
2017-10-02T01:09:40.894Z,0
2017-10-02T01:11:02.709Z,0
2017-10-02T01:12:24.883Z,0
2017-10-02T01:13:46.363Z,0
2017-10-02T01:15:07.623Z,0
2017-10-02T01:16:29.098Z,0
2017-10-02T01:17:51.531Z,0
2017-10-02T01:19:13.123Z,0
2017-10-02T01:20:34.993Z,0
2017-10-02T01:21:57.451Z,0
2017-10-02T01:23:20.124Z,0
2017-10-02T01:24:42.261Z,0
2017-10-02T01:26:04.569Z,0
2017-10-02T01:27:26.074Z,0
2017-10-02T01:28:48.783Z,0
2017-10-02T01:30:10.933Z,0
2017-10-02T01:31:33.083Z,0
2017-10-02T01:32:54.582Z,0
2017-10-02T01:34:16.695Z,0
2017-10-02T01:35:38.314Z,0
2017-10-02T01:37:00.533Z,0
2017-10-02T01:38:22.662Z,0
2017-10-02T01:39:44.790Z,0
2017-10-02T01:41:06.922Z,0
2017-10-02T01:42:29.377Z,0
2017-10-02T01:43:51.823Z,0
2017-10-02T01:45:14.023Z,0
2017-10-02T01:46:36.220Z,0
2017-10-02T01:47:57.440Z,0
2017-10-02T01:49:19.333Z,0
2017-10-02T01:50:41.212Z,0
2017-10-02T01:52:02.384Z,0
2017-10-02T01:53:24.221Z,0
2017-10-02T01:54:46.381Z,0
2017-10-02T01:56:08.503Z,0
2017-10-02T01:57:30.402Z,0
2017-10-02T01:58:51.886Z,0
2017-10-02T02:00:13.383Z,0
2017-10-02T02:01:35.193Z,0
2017-10-02T02:02:56.703Z,0
2017-10-02T02:04:18.543Z,0
2017-10-02T02:05:40.481Z,0
2017-10-02T02:07:03.293Z,0
2017-10-02T02:08:25.122Z,0
2017-10-02T02:09:47.261Z,0
2017-10-02T02:11:09.064Z,0
2017-10-02T02:12:30.591Z,0
2017-10-02T02:13:52.417Z,0
2017-10-02T02:15:14.258Z,0
2017-10-02T02:16:36.055Z,0
2017-10-02T02:17:58.543Z,0
2017-10-02T02:19:20.364Z,0
2017-10-02T02:20:42.492Z,0
2017-10-02T02:22:04.644Z,0
2017-10-02T02:23:26.498Z,0
2017-10-02T02:24:48.934Z,0
2017-10-02T02:26:11.399Z,0
2017-10-02T02:27:33.556Z,0
2017-10-02T02:28:55.694Z,0
2017-10-02T02:30:17.840Z,0
2017-10-02T02:31:39.379Z,0
2017-10-02T02:33:01.201Z,0
2017-10-02T02:34:23.461Z,0
2017-10-02T02:35:45.015Z,0
2017-10-02T02:37:07.134Z,0
2017-10-02T02:38:29.333Z,0
2017-10-02T02:39:51.482Z,0
2017-10-02T02:41:13.343Z,0
2017-10-02T02:42:35.813Z,0
2017-10-02T02:43:57.713Z,0
2017-10-02T02:45:20.261Z,0
2017-10-02T02:46:42.078Z,0
2017-10-02T02:48:03.629Z,0
2017-10-02T02:49:26.124Z,0
2017-10-02T02:50:48.245Z,0
2017-10-02T02:52:10.065Z,0
2017-10-02T02:53:32.224Z,0
2017-10-02T02:54:54.354Z,0
2017-10-02T02:56:16.544Z,0
2017-10-02T02:57:38.373Z,0
2017-10-02T02:59:00.202Z,0
2017-10-02T03:00:21.767Z,0
2017-10-02T03:01:43.964Z,0
2017-10-02T03:03:06.106Z,0
2017-10-02T03:04:28.260Z,0
2017-10-02T03:05:49.746Z,0
2017-10-02T03:07:12.555Z,0
2017-10-02T03:08:34.065Z,0
2017-10-02T03:09:55.855Z,0
2017-10-02T03:11:17.974Z,0
2017-10-02T03:12:40.461Z,0
2017-10-02T03:14:02.596Z,0
2017-10-02T03:15:25.140Z,0
2017-10-02T03:16:46.302Z,0
2017-10-02T03:18:08.432Z,0
2017-10-02T03:19:30.686Z,0
2017-10-02T03:20:52.176Z,0
2017-10-02T03:22:14.311Z,0
2017-10-02T03:23:36.769Z,0
2017-10-02T03:24:58.591Z,0
2017-10-02T03:26:20.733Z,0
2017-10-02T03:27:42.564Z,0
2017-10-02T03:29:05.401Z,0
2017-10-02T03:30:27.881Z,0
2017-10-02T03:31:50.339Z,0
2017-10-02T03:33:12.136Z,0
2017-10-02T03:34:33.924Z,0
2017-10-02T03:35:56.063Z,0
2017-10-02T03:37:17.874Z,0
2017-10-02T03:38:40.343Z,0
2017-10-02T03:40:02.503Z,0
2017-10-02T03:41:24.332Z,0
2017-10-02T03:42:45.820Z,0
2017-10-02T03:44:07.944Z,0
2017-10-02T03:45:30.752Z,0
2017-10-02T03:46:52.563Z,0
2017-10-02T03:48:14.385Z,0
2017-10-02T03:49:36.532Z,0
2017-10-02T03:50:58.440Z,0
2017-10-02T03:52:20.571Z,0
2017-10-02T03:53:42.713Z,0
2017-10-02T03:55:04.533Z,0
2017-10-02T03:56:26.693Z,0
2017-10-02T03:57:48.516Z,0
2017-10-02T03:59:10.682Z,0
2017-10-02T04:00:32.570Z,0
2017-10-02T04:01:54.373Z,0
2017-10-02T04:03:16.713Z,0
2017-10-02T04:04:38.536Z,0
2017-10-02T04:06:00.778Z,0
2017-10-02T04:07:23.292Z,0
2017-10-02T04:08:45.234Z,0
2017-10-02T04:10:07.373Z,0
2017-10-02T04:11:29.173Z,0
2017-10-02T04:12:50.713Z,0
2017-10-02T04:14:12.887Z,0
2017-10-02T04:15:35.352Z,0
2017-10-02T04:16:57.464Z,0
2017-10-02T04:18:19.924Z,0
2017-10-02T04:19:42.062Z,0
2017-10-02T04:21:03.883Z,0
2017-10-02T04:22:25.707Z,0
2017-10-02T04:23:48.351Z,0
2017-10-02T04:25:10.197Z,0
2017-10-02T04:26:32.452Z,0
2017-10-02T04:27:54.273Z,0
2017-10-02T04:29:16.424Z,0
2017-10-02T04:30:38.051Z,0
2017-10-02T04:32:00.606Z,0
2017-10-02T04:33:22.732Z,0
2017-10-02T04:34:44.556Z,0
2017-10-02T04:36:06.683Z,0
2017-10-02T04:37:28.524Z,0
2017-10-02T04:38:50.646Z,0
2017-10-02T04:40:12.526Z,0
2017-10-02T04:41:34.343Z,0
2017-10-02T04:42:56.826Z,0
2017-10-02T04:44:18.643Z,0
2017-10-02T04:45:41.119Z,0
2017-10-02T04:47:02.612Z,0
2017-10-02T04:48:24.772Z,0
2017-10-02T04:49:46.954Z,0
2017-10-02T04:51:08.813Z,0
2017-10-02T04:52:31.244Z,0
2017-10-02T04:53:52.750Z,0
2017-10-02T04:55:14.565Z,0
2017-10-02T04:56:37.051Z,0
2017-10-02T04:57:59.554Z,0
2017-10-02T04:59:21.980Z,0
2017-10-02T05:00:43.152Z,0
2017-10-02T05:02:05.895Z,0
2017-10-02T05:03:27.615Z,0
2017-10-02T05:04:49.413Z,0
2017-10-02T05:06:11.541Z,0
2017-10-02T05:07:33.383Z,0
2017-10-02T05:08:55.634Z,0
2017-10-02T05:10:17.570Z,0
2017-10-02T05:11:39.692Z,0
2017-10-02T05:13:02.175Z,0
2017-10-02T05:14:24.294Z,0
2017-10-02T05:15:46.122Z,0
2017-10-02T05:17:08.603Z,0
2017-10-02T05:18:31.636Z,0
2017-10-02T05:19:54.147Z,0
2017-10-02T05:21:15.962Z,0
2017-10-02T05:22:37.778Z,0
2017-10-02T05:24:00.222Z,0
2017-10-02T05:25:22.110Z,0
2017-10-02T05:26:43.902Z,0
2017-10-02T05:28:06.013Z,0
2017-10-02T05:29:28.171Z,0
2017-10-02T05:30:50.322Z,0
2017-10-02T05:32:12.459Z,0
2017-10-02T05:33:34.264Z,0
2017-10-02T05:34:56.318Z,0
2017-10-02T05:36:18.133Z,0
2017-10-02T05:37:39.312Z,0
2017-10-02T05:39:01.504Z,0
2017-10-02T05:40:23.966Z,0
2017-10-02T05:41:46.414Z,0
2017-10-02T05:43:08.212Z,0
2017-10-02T05:44:30.324Z,5
2017-10-02T05:45:52.612Z,0
2017-10-02T05:47:14.123Z,0
2017-10-02T05:48:35.933Z,0
2017-10-02T05:49:58.187Z,0
2017-10-02T05:51:20.262Z,5
2017-10-02T05:52:42.084Z,5
2017-10-02T05:54:03.903Z,0
2017-10-02T05:55:25.718Z,0
2017-10-02T05:56:47.832Z,5
2017-10-02T05:58:09.977Z,5
2017-10-02T05:59:31.798Z,5
2017-10-02T06:00:53.622Z,5
2017-10-02T06:02:15.363Z,5
2017-10-02T06:03:37.183Z,5
2017-10-02T06:04:59.364Z,5
2017-10-02T06:06:21.264Z,5
2017-10-02T06:07:43.404Z,5
2017-10-02T06:09:05.545Z,5
2017-10-02T06:10:27.363Z,5
2017-10-02T06:11:49.841Z,10
2017-10-02T06:13:11.962Z,5
2017-10-02T06:14:33.804Z,10
2017-10-02T06:15:55.629Z,10
2017-10-02T06:17:17.826Z,10
2017-10-02T06:18:39.994Z,15
2017-10-02T06:20:02.142Z,15
2017-10-02T06:21:23.959Z,15
2017-10-02T06:22:46.106Z,15
2017-10-02T06:24:08.564Z,15
2017-10-02T06:25:30.724Z,15
2017-10-02T06:26:53.182Z,15
2017-10-02T06:28:15.023Z,10
2017-10-02T06:29:37.874Z,10
2017-10-02T06:31:00.040Z,15
2017-10-02T06:32:21.883Z,15
2017-10-02T06:33:43.702Z,20
2017-10-02T06:35:06.154Z,25
2017-10-02T06:36:28.163Z,25
2017-10-02T06:37:50.384Z,15
2017-10-02T06:39:12.527Z,15
2017-10-02T06:40:35.034Z,20
2017-10-02T06:41:57.173Z,25
2017-10-02T06:43:19.291Z,25
2017-10-02T06:44:41.113Z,20
2017-10-02T06:46:03.174Z,20
2017-10-02T06:47:24.999Z,30
2017-10-02T06:48:46.819Z,30
2017-10-02T06:50:08.294Z,25
2017-10-02T06:51:30.973Z,20
2017-10-02T06:52:53.114Z,20
2017-10-02T06:54:14.966Z,20
2017-10-02T06:55:37.134Z,20
2017-10-02T06:56:59.606Z,20
2017-10-02T06:58:21.486Z,25
2017-10-02T06:59:43.333Z,30
2017-10-02T07:01:05.481Z,35
2017-10-02T07:02:27.614Z,25
2017-10-02T07:03:49.423Z,20
2017-10-02T07:05:11.268Z,20
2017-10-02T07:06:33.091Z,20
2017-10-02T07:07:55.747Z,25
2017-10-02T07:09:17.595Z,20
2017-10-02T07:10:40.075Z,10
2017-10-02T07:12:02.544Z,15
2017-10-02T07:13:25.352Z,20
2017-10-02T07:14:47.492Z,30
2017-10-02T07:16:09.635Z,30
2017-10-02T07:17:31.162Z,25
2017-10-02T07:18:53.324Z,30
2017-10-02T07:20:15.592Z,30
2017-10-02T07:21:37.423Z,30
2017-10-02T07:22:59.564Z,45
2017-10-02T07:24:22.387Z,55
2017-10-02T07:25:44.194Z,55
2017-10-02T07:27:06.024Z,60
2017-10-02T07:28:27.851Z,50
2017-10-02T07:29:49.361Z,50
2017-10-02T07:31:11.496Z,50
2017-10-02T07:32:32.670Z,40
2017-10-02T07:33:54.504Z,35
2017-10-02T07:35:16.668Z,40
2017-10-02T07:36:39.176Z,45
2017-10-02T07:38:01.643Z,35
2017-10-02T07:39:23.811Z,35
2017-10-02T07:40:46.307Z,40
2017-10-02T07:42:07.801Z,55
2017-10-02T07:43:30.244Z,40
2017-10-02T07:44:52.494Z,25
2017-10-02T07:46:14.713Z,20
2017-10-02T07:47:36.865Z,25
2017-10-02T07:48:59.004Z,20
2017-10-02T07:50:21.114Z,15
2017-10-02T07:51:43.613Z,20
2017-10-02T07:53:05.755Z,25
2017-10-02T07:54:27.591Z,25
2017-10-02T07:55:49.395Z,25
2017-10-02T07:57:12.105Z,35
2017-10-02T07:58:34.592Z,35
2017-10-02T07:59:57.057Z,35
2017-10-02T08:01:18.615Z,45
2017-10-02T08:02:41.153Z,60
2017-10-02T08:04:02.454Z,55
2017-10-02T08:05:24.393Z,60
2017-10-02T08:06:46.306Z,55
2017-10-02T08:08:08.482Z,65
2017-10-02T08:09:30.642Z,100
2017-10-02T08:10:52.796Z,110
2017-10-02T08:12:15.293Z,115
2017-10-02T08:13:37.432Z,100
2017-10-02T08:14:59.354Z,85
2017-10-02T08:16:21.488Z,85
2017-10-02T08:17:43.315Z,90
2017-10-02T08:19:06.044Z,90
2017-10-02T08:20:28.495Z,110
2017-10-02T08:21:50.695Z,85
2017-10-02T08:23:13.177Z,85
2017-10-02T08:24:35.395Z,95
2017-10-02T08:25:56.904Z,115
2017-10-02T08:27:19.098Z,100
2017-10-02T08:28:40.943Z,110
2017-10-02T08:30:03.434Z,80
2017-10-02T08:31:25.263Z,95
2017-10-02T08:32:47.725Z,95
2017-10-02T08:34:09.603Z,75
2017-10-02T08:35:31.806Z,100
2017-10-02T08:36:54.274Z,120
2017-10-02T08:38:16.202Z,130
2017-10-02T08:39:38.669Z,175
2017-10-02T08:41:01.447Z,195
2017-10-02T08:42:23.395Z,200
2017-10-02T08:43:45.616Z,220
2017-10-02T08:45:07.774Z,240
2017-10-02T08:46:29.658Z,260
2017-10-02T08:47:52.144Z,250
2017-10-02T08:49:14.644Z,220
2017-10-02T08:50:36.786Z,200
2017-10-02T08:51:59.194Z,165
2017-10-02T08:53:21.681Z,165
2017-10-02T08:54:44.177Z,130
2017-10-02T08:56:06.336Z,120
2017-10-02T08:57:28.507Z,130
2017-10-02T08:58:50.746Z,195
2017-10-02T09:00:12.881Z,250
2017-10-02T09:01:34.494Z,245
2017-10-02T09:02:56.732Z,225
2017-10-02T09:04:18.883Z,235
2017-10-02T09:05:41.021Z,185
2017-10-02T09:07:03.538Z,165
2017-10-02T09:08:26.064Z,175
2017-10-02T09:09:47.905Z,130
2017-10-02T09:11:10.047Z,115
2017-10-02T09:12:32.525Z,120
2017-10-02T09:13:54.694Z,180
2017-10-02T09:15:16.834Z,180
2017-10-02T09:16:39.035Z,210
2017-10-02T09:18:01.495Z,150
2017-10-02T09:19:24.032Z,185
2017-10-02T09:20:46.196Z,230
2017-10-02T09:22:08.374Z,210
2017-10-02T09:23:30.831Z,225
2017-10-02T09:24:53.675Z,290
2017-10-02T09:26:15.844Z,280
2017-10-02T09:27:38.000Z,280
2017-10-02T09:29:00.174Z,285
2017-10-02T09:30:22.337Z,275
2017-10-02T09:31:44.463Z,265
2017-10-02T09:33:06.016Z,255
2017-10-02T09:34:28.544Z,290
2017-10-02T09:35:50.946Z,330
2017-10-02T09:37:13.512Z,350
2017-10-02T09:38:35.327Z,325
2017-10-02T09:39:57.514Z,305
2017-10-02T09:41:20.345Z,335
2017-10-02T09:42:42.215Z,365
2017-10-02T09:44:04.423Z,330
2017-10-02T09:45:26.601Z,300
2017-10-02T09:46:49.127Z,325
2017-10-02T09:48:11.604Z,285
2017-10-02T09:49:33.433Z,260
2017-10-02T09:50:54.607Z,210
2017-10-02T09:52:16.808Z,165
2017-10-02T09:53:38.354Z,155
2017-10-02T09:55:00.834Z,190
2017-10-02T09:56:22.649Z,130
2017-10-02T09:57:44.854Z,175
2017-10-02T09:59:07.053Z,160
2017-10-02T10:00:29.285Z,185
2017-10-02T10:01:51.428Z,175
2017-10-02T10:03:13.379Z,250
2017-10-02T10:04:35.985Z,215
2017-10-02T10:05:57.911Z,230
2017-10-02T10:07:19.772Z,250
2017-10-02T10:08:41.910Z,290
2017-10-02T10:10:04.375Z,290
2017-10-02T10:11:26.872Z,260
2017-10-02T10:12:49.411Z,265
2017-10-02T10:14:12.244Z,295
2017-10-02T10:15:34.754Z,335
2017-10-02T10:16:57.214Z,335
2017-10-02T10:18:19.739Z,365
2017-10-02T10:19:42.282Z,395
2017-10-02T10:21:04.505Z,370
2017-10-02T10:22:26.644Z,350
2017-10-02T10:23:48.454Z,375
2017-10-02T10:25:10.396Z,435
2017-10-02T10:26:32.855Z,495
2017-10-02T10:27:54.695Z,470
2017-10-02T10:29:17.193Z,420
2017-10-02T10:30:39.491Z,400
2017-10-02T10:32:00.695Z,365
2017-10-02T10:33:22.523Z,345
2017-10-02T10:34:44.515Z,305
2017-10-02T10:36:07.354Z,260
2017-10-02T10:37:29.516Z,220
2017-10-02T10:38:52.083Z,205
2017-10-02T10:40:14.254Z,190
2017-10-02T10:41:36.633Z,175
2017-10-02T10:42:59.083Z,155
2017-10-02T10:44:20.900Z,200
2017-10-02T10:45:42.744Z,245
2017-10-02T10:47:04.934Z,250
2017-10-02T10:48:26.759Z,215
2017-10-02T10:49:48.635Z,225
2017-10-02T10:51:11.137Z,215
2017-10-02T10:52:33.662Z,185
2017-10-02T10:53:55.832Z,210
2017-10-02T10:55:18.304Z,220
2017-10-02T10:56:40.789Z,215
2017-10-02T10:58:03.743Z,225
2017-10-02T10:59:25.264Z,235
2017-10-02T11:00:47.089Z,275
2017-10-02T11:02:09.035Z,280
2017-10-02T11:03:31.503Z,295
2017-10-02T11:04:53.327Z,270
2017-10-02T11:06:15.523Z,270
2017-10-02T11:07:37.367Z,265
2017-10-02T11:08:59.543Z,260
2017-10-02T11:10:21.684Z,320
2017-10-02T11:11:43.511Z,315
2017-10-02T11:13:05.654Z,310
2017-10-02T11:14:28.753Z,265
2017-10-02T11:15:51.386Z,235
2017-10-02T11:17:13.522Z,210
2017-10-02T11:18:35.039Z,200
2017-10-02T11:19:57.556Z,245
2017-10-02T11:21:19.067Z,270
2017-10-02T11:22:41.236Z,300
2017-10-02T11:24:03.145Z,330
2017-10-02T11:25:25.653Z,290
2017-10-02T11:26:48.155Z,270
2017-10-02T11:28:09.973Z,245
2017-10-02T11:29:32.446Z,200
2017-10-02T11:30:54.603Z,150
2017-10-02T11:32:17.188Z,125
2017-10-02T11:33:39.333Z,140
2017-10-02T11:35:01.200Z,135
2017-10-02T11:36:23.658Z,125
2017-10-02T11:37:45.523Z,110
2017-10-02T11:39:07.994Z,95
2017-10-02T11:40:30.615Z,100
2017-10-02T11:41:52.740Z,125
2017-10-02T11:43:15.027Z,160
2017-10-02T11:44:37.173Z,145
2017-10-02T11:45:59.326Z,165
2017-10-02T11:47:22.124Z,190
2017-10-02T11:48:44.262Z,200
2017-10-02T11:50:05.772Z,225
2017-10-02T11:51:27.964Z,245
2017-10-02T11:52:50.216Z,280
2017-10-02T11:54:12.034Z,305
2017-10-02T11:55:34.546Z,315
2017-10-02T11:56:56.384Z,285
2017-10-02T11:58:19.463Z,255
2017-10-02T11:59:42.007Z,270
2017-10-02T12:01:04.194Z,295
2017-10-02T12:02:26.688Z,300
2017-10-02T12:03:49.513Z,295
2017-10-02T12:05:11.973Z,275
2017-10-02T12:06:34.487Z,265
2017-10-02T12:07:56.027Z,270
2017-10-02T12:09:18.516Z,270
2017-10-02T12:10:40.354Z,265
2017-10-02T12:12:02.831Z,240
2017-10-02T12:13:24.661Z,205
2017-10-02T12:14:46.788Z,190
2017-10-02T12:16:09.274Z,190
2017-10-02T12:17:31.154Z,190
2017-10-02T12:18:52.998Z,180
2017-10-02T12:20:14.833Z,160
2017-10-02T12:21:36.919Z,160
2017-10-02T12:22:59.077Z,175
2017-10-02T12:24:21.220Z,195
2017-10-02T12:25:43.381Z,215
2017-10-02T12:27:05.546Z,240
2017-10-02T12:28:27.693Z,255
2017-10-02T12:29:49.540Z,270
2017-10-02T12:31:11.722Z,295
2017-10-02T12:32:33.565Z,355
2017-10-02T12:33:55.197Z,390
2017-10-02T12:35:17.779Z,350
2017-10-02T12:36:39.602Z,365
2017-10-02T12:38:01.812Z,350
2017-10-02T12:39:23.643Z,305
2017-10-02T12:40:45.814Z,280
2017-10-02T12:42:07.976Z,285
2017-10-02T12:43:29.833Z,240
2017-10-02T12:44:51.991Z,230
2017-10-02T12:46:14.139Z,205
2017-10-02T12:47:36.356Z,185
2017-10-02T12:48:58.828Z,170
2017-10-02T12:50:21.413Z,185
2017-10-02T12:51:43.222Z,205
2017-10-02T12:53:05.043Z,195
2017-10-02T12:54:27.015Z,180
2017-10-02T12:55:48.970Z,135
2017-10-02T12:57:11.472Z,90
2017-10-02T12:58:33.872Z,60
2017-10-02T12:59:55.376Z,70
2017-10-02T13:01:17.537Z,130
2017-10-02T13:02:39.071Z,185
2017-10-02T13:04:00.914Z,215
2017-10-02T13:05:23.069Z,235
2017-10-02T13:06:45.755Z,190
2017-10-02T13:08:07.976Z,135
2017-10-02T13:09:31.035Z,115
2017-10-02T13:10:53.516Z,100
2017-10-02T13:12:15.673Z,80
2017-10-02T13:13:37.805Z,65
2017-10-02T13:15:00.446Z,80
2017-10-02T13:16:22.281Z,125
2017-10-02T13:17:44.106Z,180
2017-10-02T13:19:06.240Z,235
2017-10-02T13:20:28.384Z,250
2017-10-02T13:21:50.534Z,245
2017-10-02T13:23:12.726Z,255
2017-10-02T13:24:34.875Z,250
2017-10-02T13:25:57.066Z,265
2017-10-02T13:27:19.024Z,275
2017-10-02T13:28:41.154Z,250
2017-10-02T13:30:03.294Z,225
2017-10-02T13:31:25.156Z,215
2017-10-02T13:32:46.983Z,225
2017-10-02T13:34:09.144Z,235
2017-10-02T13:35:31.691Z,225
2017-10-02T13:36:54.003Z,200
2017-10-02T13:38:15.489Z,190
2017-10-02T13:39:37.303Z,180
2017-10-02T13:40:59.558Z,225
2017-10-02T13:42:21.724Z,235
2017-10-02T13:43:43.874Z,195
2017-10-02T13:45:06.376Z,155
2017-10-02T13:46:28.877Z,120
2017-10-02T13:47:51.768Z,75
2017-10-02T13:49:14.254Z,60
2017-10-02T13:50:36.402Z,75
2017-10-02T13:51:57.934Z,130
2017-10-02T13:53:20.394Z,155
2017-10-02T13:54:42.915Z,155
2017-10-02T13:56:04.455Z,160
2017-10-02T13:57:26.315Z,150
2017-10-02T13:58:49.243Z,175
2017-10-02T14:00:11.732Z,210
2017-10-02T14:01:33.882Z,235
2017-10-02T14:02:55.715Z,255
2017-10-02T14:04:17.682Z,235
2017-10-02T14:05:40.174Z,210
2017-10-02T14:07:01.703Z,195
2017-10-02T14:08:23.861Z,205
2017-10-02T14:09:46.316Z,230
2017-10-02T14:11:08.817Z,250
2017-10-02T14:12:30.979Z,235
2017-10-02T14:13:52.852Z,220
2017-10-02T14:15:15.015Z,215
2017-10-02T14:16:37.156Z,210
2017-10-02T14:17:59.301Z,200
2017-10-02T14:19:21.139Z,210
2017-10-02T14:20:42.650Z,225
2017-10-02T14:22:05.156Z,245
2017-10-02T14:23:27.001Z,245
2017-10-02T14:24:49.218Z,205
2017-10-02T14:26:11.006Z,165
2017-10-02T14:27:33.221Z,135
2017-10-02T14:28:55.846Z,105
2017-10-02T14:30:18.333Z,100
2017-10-02T14:31:40.829Z,105
2017-10-02T14:33:02.323Z,140
2017-10-02T14:34:24.154Z,180
2017-10-02T14:35:46.345Z,170
2017-10-02T14:37:08.504Z,135
2017-10-02T14:38:30.664Z,120
2017-10-02T14:39:53.145Z,125
2017-10-02T14:41:15.043Z,145
2017-10-02T14:42:37.208Z,125
2017-10-02T14:43:59.384Z,95
2017-10-02T14:45:21.229Z,75
2017-10-02T14:46:43.715Z,70
2017-10-02T14:48:06.639Z,80
2017-10-02T14:49:28.841Z,85
2017-10-02T14:50:50.362Z,95
2017-10-02T14:52:12.883Z,105
2017-10-02T14:53:35.044Z,130
2017-10-02T14:54:57.363Z,140
2017-10-02T14:56:19.252Z,125
2017-10-02T14:57:41.456Z,95
2017-10-02T14:59:03.765Z,105
2017-10-02T15:00:25.643Z,105
2017-10-02T15:01:47.873Z,85
2017-10-02T15:03:10.105Z,65
2017-10-02T15:04:32.581Z,60
2017-10-02T15:05:54.433Z,75
2017-10-02T15:07:16.600Z,85
2017-10-02T15:08:38.752Z,95
2017-10-02T15:10:01.614Z,85
2017-10-02T15:11:23.773Z,65
2017-10-02T15:12:46.256Z,65
2017-10-02T15:14:08.733Z,50
2017-10-02T15:15:30.914Z,50
2017-10-02T15:16:52.749Z,50
2017-10-02T15:18:14.594Z,50
2017-10-02T15:19:37.091Z,50
2017-10-02T15:20:59.434Z,40
2017-10-02T15:22:21.662Z,45
2017-10-02T15:23:43.820Z,45
2017-10-02T15:25:05.993Z,45
2017-10-02T15:26:28.523Z,45
2017-10-02T15:27:50.431Z,45
2017-10-02T15:29:11.998Z,45
2017-10-02T15:30:34.594Z,45
2017-10-02T15:31:56.864Z,45
2017-10-02T15:33:19.010Z,40
2017-10-02T15:34:41.324Z,30
2017-10-02T15:36:03.893Z,25
2017-10-02T15:37:25.749Z,25
2017-10-02T15:38:48.330Z,45
2017-10-02T15:40:10.802Z,70
2017-10-02T15:41:33.280Z,75
2017-10-02T15:42:55.827Z,75
2017-10-02T15:44:18.285Z,75
2017-10-02T15:45:40.435Z,60
2017-10-02T15:47:02.901Z,40
2017-10-02T15:48:25.044Z,35
2017-10-02T15:49:47.194Z,35
2017-10-02T15:51:09.675Z,30
2017-10-02T15:52:32.167Z,40
2017-10-02T15:53:54.392Z,45
2017-10-02T15:55:16.242Z,55
2017-10-02T15:56:38.714Z,60
2017-10-02T15:58:01.382Z,65
2017-10-02T15:59:23.553Z,50
2017-10-02T16:00:45.693Z,45
2017-10-02T16:02:08.184Z,45
2017-10-02T16:03:30.380Z,40
2017-10-02T16:04:53.214Z,40
2017-10-02T16:06:14.743Z,40
2017-10-02T16:07:36.910Z,35
2017-10-02T16:08:59.064Z,25
2017-10-02T16:10:21.889Z,25
2017-10-02T16:11:44.075Z,25
2017-10-02T16:13:06.214Z,30
2017-10-02T16:14:28.752Z,20
2017-10-02T16:15:51.303Z,15
2017-10-02T16:17:13.492Z,20
2017-10-02T16:18:34.694Z,30
2017-10-02T16:19:56.197Z,25
2017-10-02T16:21:18.342Z,25
2017-10-02T16:22:40.264Z,25
2017-10-02T16:24:02.723Z,25
2017-10-02T16:25:24.607Z,20
2017-10-02T16:26:46.433Z,20
2017-10-02T16:28:08.573Z,15
2017-10-02T16:29:29.882Z,15
2017-10-02T16:30:51.704Z,10
2017-10-02T16:32:14.203Z,10
2017-10-02T16:33:36.361Z,10
2017-10-02T16:34:58.493Z,10
2017-10-02T16:36:20.652Z,10
2017-10-02T16:37:42.791Z,10
2017-10-02T16:39:03.980Z,10
2017-10-02T16:40:26.142Z,10
2017-10-02T16:41:48.281Z,15
2017-10-02T16:43:10.814Z,10
2017-10-02T16:44:33.262Z,10
2017-10-02T16:45:55.524Z,10
2017-10-02T16:47:18.023Z,5
2017-10-02T16:48:40.533Z,5
2017-10-02T16:50:02.344Z,5
2017-10-02T16:51:24.847Z,5
2017-10-02T16:52:47.350Z,5
2017-10-02T16:54:09.833Z,5
2017-10-02T16:55:31.985Z,5
2017-10-02T16:56:54.126Z,5
2017-10-02T16:58:15.813Z,0
2017-10-02T16:59:37.939Z,0
2017-10-02T17:01:00.073Z,0
2017-10-02T17:02:22.244Z,0
2017-10-02T17:03:44.734Z,0
2017-10-02T17:05:07.011Z,0
2017-10-02T17:06:29.566Z,0
2017-10-02T17:07:52.038Z,0
2017-10-02T17:09:14.194Z,0
2017-10-02T17:10:36.753Z,0
2017-10-02T17:11:58.970Z,0
2017-10-02T17:13:20.823Z,0
2017-10-02T17:14:42.653Z,0
2017-10-02T17:16:05.297Z,0
2017-10-02T17:17:27.781Z,0
2017-10-02T17:18:49.974Z,0
2017-10-02T17:20:12.130Z,0
2017-10-02T17:21:34.653Z,0
2017-10-02T17:22:56.504Z,0
2017-10-02T17:24:18.713Z,0
2017-10-02T17:25:40.913Z,0
2017-10-02T17:27:03.206Z,0
2017-10-02T17:28:25.442Z,0
2017-10-02T17:29:47.279Z,0
2017-10-02T17:31:09.134Z,0
2017-10-02T17:32:31.290Z,0
2017-10-02T17:33:53.753Z,0
2017-10-02T17:35:16.294Z,0
2017-10-02T17:36:38.452Z,0
2017-10-02T17:38:00.644Z,0
2017-10-02T17:39:23.126Z,0
2017-10-02T17:40:44.964Z,0
2017-10-02T17:42:07.106Z,0
2017-10-02T17:43:29.297Z,0
2017-10-02T17:44:51.811Z,0
2017-10-02T17:46:13.643Z,0
2017-10-02T17:47:36.123Z,0
2017-10-02T17:48:58.948Z,0
2017-10-02T17:50:21.164Z,0
2017-10-02T17:51:43.325Z,0
2017-10-02T17:53:05.299Z,0
2017-10-02T17:54:27.392Z,0
2017-10-02T17:55:49.465Z,0
2017-10-02T17:57:10.832Z,0
2017-10-02T17:58:32.492Z,0
2017-10-02T17:59:54.496Z,0
2017-10-02T18:01:16.454Z,0
2017-10-02T18:02:37.457Z,0
2017-10-02T18:03:59.516Z,0
2017-10-02T18:05:21.816Z,0
2017-10-02T18:06:43.464Z,0
2017-10-02T18:08:05.120Z,0
2017-10-02T18:09:27.096Z,0
2017-10-02T18:10:48.084Z,0
2017-10-02T18:12:09.510Z,0
2017-10-02T18:13:31.144Z,0
2017-10-02T18:14:53.120Z,0
2017-10-02T18:16:15.188Z,0
2017-10-02T18:17:37.244Z,0
2017-10-02T18:18:59.222Z,0
2017-10-02T18:20:20.553Z,0
2017-10-02T18:21:41.857Z,0
2017-10-02T18:23:03.960Z,0
2017-10-02T18:24:25.600Z,0
2017-10-02T18:25:46.939Z,0
2017-10-02T18:27:08.894Z,0
2017-10-02T18:28:30.860Z,0
2017-10-02T18:29:52.953Z,0
2017-10-02T18:31:14.603Z,0
2017-10-02T18:32:36.616Z,0
2017-10-02T18:33:57.949Z,0
2017-10-02T18:35:20.064Z,0
2017-10-02T18:36:41.406Z,0
2017-10-02T18:38:03.394Z,0
2017-10-02T18:39:25.363Z,0
2017-10-02T18:40:47.364Z,0
2017-10-02T18:42:09.355Z,0
2017-10-02T18:43:31.654Z,0
2017-10-02T18:44:53.765Z,0
2017-10-02T18:46:15.417Z,0
2017-10-02T18:47:36.754Z,0
2017-10-02T18:49:13.643Z,0
2017-10-02T18:50:35.303Z,0
2017-10-02T18:51:56.974Z,0
2017-10-02T18:53:18.624Z,0
2017-10-02T18:54:40.578Z,0
2017-10-02T18:56:01.883Z,0
2017-10-02T18:57:23.554Z,0
2017-10-02T18:58:45.294Z,0
2017-10-02T19:00:07.281Z,0
2017-10-02T19:01:28.964Z,0
2017-10-02T19:02:50.944Z,0
2017-10-02T19:04:12.925Z,0
2017-10-02T19:05:34.889Z,0
2017-10-02T19:06:56.534Z,0
2017-10-02T19:08:18.504Z,0
2017-10-02T19:09:40.504Z,0
2017-10-02T19:11:02.821Z,0
2017-10-02T19:12:24.464Z,0
2017-10-02T19:13:46.425Z,0
2017-10-02T19:15:08.118Z,0
2017-10-02T19:16:29.465Z,0
2017-10-02T19:17:51.324Z,0
2017-10-02T19:19:12.996Z,0
2017-10-02T19:20:34.965Z,0
2017-10-02T19:21:56.901Z,0
2017-10-02T19:23:18.604Z,0
2017-10-02T19:24:40.593Z,0
2017-10-02T19:26:02.249Z,0
2017-10-02T19:27:24.264Z,0
2017-10-02T19:28:45.935Z,0
2017-10-02T19:30:07.926Z,0
2017-10-02T19:31:29.597Z,0
2017-10-02T19:32:51.585Z,0
2017-10-02T19:34:13.556Z,0
2017-10-02T19:35:35.213Z,0
2017-10-02T19:36:56.850Z,0
2017-10-02T19:38:18.173Z,0